sensor_id;sensor_type;location;lat;lon;timestamp;temperature;humidity
21799;DHT22;24973;47.178;15.316;2022-12-07T00:00:51;0.50;99.90
21799;DHT22;24973;47.178;15.316;2022-12-07T00:03:41;1.20;99.90
21799;DHT22;24973;47.178;15.316;2022-12-07T00:06:31;0.40;99.90
21799;DHT22;24973;47.178;15.316;2022-12-07T00:09:21;0.40;99.90
21799;DHT22;24973;47.178;15.316;2022-12-07T00:12:11;0.80;99.90
21799;DHT22;24973;47.178;15.316;2022-12-07T00:15:00;0.90;99.90
21799;DHT22;24973;47.178;15.316;2022-12-07T00:17:49;0.40;99.90
21799;DHT22;24973;47.178;15.316;2022-12-07T00:20:37;0.80;99.90
21799;DHT22;24973;47.178;15.316;2022-12-07T00:23:26;0.40;99.90
21799;DHT22;24973;47.178;15.316;2022-12-07T00:26:17;0.40;99.90
21799;DHT22;24973;47.178;15.316;2022-12-07T00:29:13;0.30;99.90
21799;DHT22;24973;47.178;15.316;2022-12-07T00:32:04;0.30;99.90
21799;DHT22;24973;47.178;15.316;2022-12-07T00:34:53;0.30;99.90
21799;DHT22;24973;47.178;15.316;2022-12-07T00:37:41;0.30;99.90
21799;DHT22;24973;47.178;15.316;2022-12-07T00:40:30;1.10;99.90
21799;DHT22;24973;47.178;15.316;2022-12-07T00:43:19;0.20;99.90
21799;DHT22;24973;47.178;15.316;2022-12-07T00:46:09;0.10;99.90
21799;DHT22;24973;47.178;15.316;2022-12-07T00:48:59;1.00;99.90
21799;DHT22;24973;47.178;15.316;2022-12-07T00:51:48;0.40;99.90
21799;DHT22;24973;47.178;15.316;2022-12-07T00:54:37;0.20;99.90
21799;DHT22;24973;47.178;15.316;2022-12-07T00:57:26;0.20;99.90
21799;DHT22;24973;47.178;15.316;2022-12-07T01:00:15;0.20;99.90
21799;DHT22;24973;47.178;15.316;2022-12-07T01:03:06;0.10;99.90
21799;DHT22;24973;47.178;15.316;2022-12-07T01:05:57;0.10;99.90
21799;DHT22;24973;47.178;15.316;2022-12-07T01:08:45;0.10;99.90
21799;DHT22;24973;47.178;15.316;2022-12-07T01:11:34;0.20;99.90
21799;DHT22;24973;47.178;15.316;2022-12-07T01:14:23;0.10;99.90
21799;DHT22;24973;47.178;15.316;2022-12-07T01:17:12;0.60;99.90
21799;DHT22;24973;47.178;15.316;2022-12-07T01:20:03;1.40;99.90
21799;DHT22;24973;47.178;15.316;2022-12-07T01:22:53;0.20;99.90
21799;DHT22;24973;47.178;15.316;2022-12-07T01:25:41;0.20;99.90
21799;DHT22;24973;47.178;15.316;2022-12-07T01:28:30;0.90;99.90
21799;DHT22;24973;47.178;15.316;2022-12-07T01:31:20;0.70;99.90
21799;DHT22;24973;47.178;15.316;2022-12-07T01:34:10;0.30;99.90
21799;DHT22;24973;47.178;15.316;2022-12-07T01:37:00;0.30;99.90
21799;DHT22;24973;47.178;15.316;2022-12-07T01:39:49;0.80;99.90
21799;DHT22;24973;47.178;15.316;2022-12-07T01:42:37;1.00;99.90
21799;DHT22;24973;47.178;15.316;2022-12-07T01:45:44;1.60;99.90
21799;DHT22;24973;47.178;15.316;2022-12-07T01:48:35;1.50;99.90
21799;DHT22;24973;47.178;15.316;2022-12-07T01:51:27;0.30;99.90
21799;DHT22;24973;47.178;15.316;2022-12-07T01:54:18;0.20;99.90
21799;DHT22;24973;47.178;15.316;2022-12-07T01:57:09;0.10;99.90
21799;DHT22;24973;47.178;15.316;2022-12-07T01:59:58;0.10;99.90
21799;DHT22;24973;47.178;15.316;2022-12-07T02:02:51;0.20;99.90
21799;DHT22;24973;47.178;15.316;2022-12-07T02:05:43;0.20;99.90
21799;DHT22;24973;47.178;15.316;2022-12-07T02:08:33;0.20;99.90
21799;DHT22;24973;47.178;15.316;2022-12-07T02:11:24;0.30;99.90
21799;DHT22;24973;47.178;15.316;2022-12-07T02:14:13;0.30;99.90
21799;DHT22;24973;47.178;15.316;2022-12-07T02:17:09;0.30;99.90
21799;DHT22;24973;47.178;15.316;2022-12-07T02:20:18;1.10;99.90
21799;DHT22;24973;47.178;15.316;2022-12-07T02:23:38;0.20;99.90
21799;DHT22;24973;47.178;15.316;2022-12-07T02:26:59;1.40;99.90
21799;DHT22;24973;47.178;15.316;2022-12-07T02:30:00;0.10;99.90
21799;DHT22;24973;47.178;15.316;2022-12-07T02:32:55;0.10;99.90
21799;DHT22;24973;47.178;15.316;2022-12-07T02:35:51;0.10;99.90
21799;DHT22;24973;47.178;15.316;2022-12-07T02:38:48;0.00;99.90
21799;DHT22;24973;47.178;15.316;2022-12-07T02:41:43;0.00;99.90
21799;DHT22;24973;47.178;15.316;2022-12-07T02:44:34;0.00;99.90
21799;DHT22;24973;47.178;15.316;2022-12-07T02:47:25;0.00;99.90
21799;DHT22;24973;47.178;15.316;2022-12-07T02:50:14;0.70;99.90
21799;DHT22;24973;47.178;15.316;2022-12-07T02:56:30;-0.10;99.90
21799;DHT22;24973;47.178;15.316;2022-12-07T02:59:31;-0.10;99.90
21799;DHT22;24973;47.178;15.316;2022-12-07T03:02:35;-0.10;99.90
21799;DHT22;24973;47.178;15.316;2022-12-07T03:06:03;0.50;99.90
21799;DHT22;24973;47.178;15.316;2022-12-07T03:09:01;-0.10;99.90
21799;DHT22;24973;47.178;15.316;2022-12-07T03:12:02;-0.20;99.90
21799;DHT22;24973;47.178;15.316;2022-12-07T03:14:59;-0.20;99.90
21799;DHT22;24973;47.178;15.316;2022-12-07T03:17:51;-0.30;99.90
21799;DHT22;24973;47.178;15.316;2022-12-07T03:20:42;0.60;99.90
21799;DHT22;24973;47.178;15.316;2022-12-07T03:23:34;-0.30;99.90
21799;DHT22;24973;47.178;15.316;2022-12-07T03:26:28;-0.30;99.90
21799;DHT22;24973;47.178;15.316;2022-12-07T03:29:32;-0.30;99.90
21799;DHT22;24973;47.178;15.316;2022-12-07T03:32:29;-0.30;99.90
21799;DHT22;24973;47.178;15.316;2022-12-07T03:35:24;1.20;99.90
21799;DHT22;24973;47.178;15.316;2022-12-07T03:38:19;-0.30;99.90
21799;DHT22;24973;47.178;15.316;2022-12-07T03:41:14;-0.40;99.90
21799;DHT22;24973;47.178;15.316;2022-12-07T03:44:06;0.50;99.90
21799;DHT22;24973;47.178;15.316;2022-12-07T03:47:01;-0.50;99.90
21799;DHT22;24973;47.178;15.316;2022-12-07T03:49:54;0.30;99.90
21799;DHT22;24973;47.178;15.316;2022-12-07T03:52:52;-0.50;99.90
21799;DHT22;24973;47.178;15.316;2022-12-07T03:55:44;-0.40;99.90
21799;DHT22;24973;47.178;15.316;2022-12-07T03:58:34;-0.40;99.90
21799;DHT22;24973;47.178;15.316;2022-12-07T04:01:23;-0.40;99.90
21799;DHT22;24973;47.178;15.316;2022-12-07T04:04:13;0.00;99.90
21799;DHT22;24973;47.178;15.316;2022-12-07T04:07:01;0.10;99.90
21799;DHT22;24973;47.178;15.316;2022-12-07T04:09:51;-0.70;99.90
21799;DHT22;24973;47.178;15.316;2022-12-07T04:12:41;0.20;99.90
21799;DHT22;24973;47.178;15.316;2022-12-07T04:15:30;0.10;99.90
21799;DHT22;24973;47.178;15.316;2022-12-07T04:18:19;0.00;99.90
21799;DHT22;24973;47.178;15.316;2022-12-07T04:21:08;1.00;99.90
21799;DHT22;24973;47.178;15.316;2022-12-07T04:23:56;-0.40;99.90
21799;DHT22;24973;47.178;15.316;2022-12-07T04:26:47;-1.00;99.90
21799;DHT22;24973;47.178;15.316;2022-12-07T04:29:36;-1.10;99.90
21799;DHT22;24973;47.178;15.316;2022-12-07T04:32:25;-1.10;99.90
21799;DHT22;24973;47.178;15.316;2022-12-07T04:35:13;-0.70;99.90
21799;DHT22;24973;47.178;15.316;2022-12-07T04:38:02;-0.20;99.90
21799;DHT22;24973;47.178;15.316;2022-12-07T04:40:51;0.20;99.90
21799;DHT22;24973;47.178;15.316;2022-12-07T04:43:41;-0.80;99.90
21799;DHT22;24973;47.178;15.316;2022-12-07T04:46:31;-0.50;99.90
21799;DHT22;24973;47.178;15.316;2022-12-07T04:49:20;-0.40;99.90
21799;DHT22;24973;47.178;15.316;2022-12-07T04:52:09;-0.80;99.90
21799;DHT22;24973;47.178;15.316;2022-12-07T04:54:58;0.30;99.90
21799;DHT22;24973;47.178;15.316;2022-12-07T04:57:47;-0.90;99.90
21799;DHT22;24973;47.178;15.316;2022-12-07T05:00:37;-0.40;99.90
21799;DHT22;24973;47.178;15.316;2022-12-07T05:03:26;-0.90;99.90
21799;DHT22;24973;47.178;15.316;2022-12-07T05:06:14;0.20;99.90
21799;DHT22;24973;47.178;15.316;2022-12-07T05:09:04;-1.10;99.90
21799;DHT22;24973;47.178;15.316;2022-12-07T05:11:53;-1.10;99.90
21799;DHT22;24973;47.178;15.316;2022-12-07T05:14:41;-0.70;99.90
21799;DHT22;24973;47.178;15.316;2022-12-07T05:17:32;-1.20;99.90
21799;DHT22;24973;47.178;15.316;2022-12-07T05:20:20;-1.30;99.90
21799;DHT22;24973;47.178;15.316;2022-12-07T05:23:09;-1.30;99.90
21799;DHT22;24973;47.178;15.316;2022-12-07T05:25:58;-1.30;99.90
21799;DHT22;24973;47.178;15.316;2022-12-07T05:28:50;-0.50;99.90
21799;DHT22;24973;47.178;15.316;2022-12-07T05:31:39;-1.10;99.90
21799;DHT22;24973;47.178;15.316;2022-12-07T05:34:29;-1.10;99.90
21799;DHT22;24973;47.178;15.316;2022-12-07T05:37:18;-0.90;99.90
21799;DHT22;24973;47.178;15.316;2022-12-07T05:40:08;-1.20;99.90
21799;DHT22;24973;47.178;15.316;2022-12-07T05:42:57;-1.30;99.90
21799;DHT22;24973;47.178;15.316;2022-12-07T05:45:50;-1.30;99.90
21799;DHT22;24973;47.178;15.316;2022-12-07T05:48:38;-1.20;99.90
21799;DHT22;24973;47.178;15.316;2022-12-07T05:51:29;-1.20;99.90
21799;DHT22;24973;47.178;15.316;2022-12-07T05:54:18;-1.00;99.90
21799;DHT22;24973;47.178;15.316;2022-12-07T05:57:06;-1.00;99.90
21799;DHT22;24973;47.178;15.316;2022-12-07T05:59:55;-0.90;99.90
21799;DHT22;24973;47.178;15.316;2022-12-07T06:02:43;0.20;99.90
21799;DHT22;24973;47.178;15.316;2022-12-07T06:05:32;-0.20;99.90
21799;DHT22;24973;47.178;15.316;2022-12-07T06:08:22;0.00;99.90
21799;DHT22;24973;47.178;15.316;2022-12-07T06:11:10;-1.10;99.90
21799;DHT22;24973;47.178;15.316;2022-12-07T06:14:16;-1.30;99.90
21799;DHT22;24973;47.178;15.316;2022-12-07T06:17:06;-0.90;99.90
21799;DHT22;24973;47.178;15.316;2022-12-07T06:19:55;-0.80;99.90
21799;DHT22;24973;47.178;15.316;2022-12-07T06:22:43;-1.30;99.90
21799;DHT22;24973;47.178;15.316;2022-12-07T06:25:33;-1.30;99.90
21799;DHT22;24973;47.178;15.316;2022-12-07T06:28:22;-1.20;99.90
21799;DHT22;24973;47.178;15.316;2022-12-07T06:31:11;-1.30;99.90
21799;DHT22;24973;47.178;15.316;2022-12-07T06:34:01;-1.10;99.90
21799;DHT22;24973;47.178;15.316;2022-12-07T06:36:51;-1.30;99.90
21799;DHT22;24973;47.178;15.316;2022-12-07T06:39:42;0.20;99.90
21799;DHT22;24973;47.178;15.316;2022-12-07T06:42:32;-0.40;99.90
21799;DHT22;24973;47.178;15.316;2022-12-07T06:45:21;-1.00;99.90
21799;DHT22;24973;47.178;15.316;2022-12-07T06:48:10;-1.00;99.90
21799;DHT22;24973;47.178;15.316;2022-12-07T06:50:58;-0.80;99.90
21799;DHT22;24973;47.178;15.316;2022-12-07T06:53:47;-0.50;99.90
21799;DHT22;24973;47.178;15.316;2022-12-07T06:56:36;-0.90;99.90
21799;DHT22;24973;47.178;15.316;2022-12-07T06:59:27;-1.00;99.90
21799;DHT22;24973;47.178;15.316;2022-12-07T07:02:15;-1.00;99.90
21799;DHT22;24973;47.178;15.316;2022-12-07T07:05:05;-1.00;99.90
21799;DHT22;24973;47.178;15.316;2022-12-07T07:07:54;-0.90;99.90
21799;DHT22;24973;47.178;15.316;2022-12-07T07:11:03;0.70;99.90
21799;DHT22;24973;47.178;15.316;2022-12-07T07:13:52;-0.70;99.90
21799;DHT22;24973;47.178;15.316;2022-12-07T07:16:45;-0.60;99.90
21799;DHT22;24973;47.178;15.316;2022-12-07T07:19:34;0.40;99.90
21799;DHT22;24973;47.178;15.316;2022-12-07T07:22:23;0.70;99.90
21799;DHT22;24973;47.178;15.316;2022-12-07T07:25:12;-0.50;99.90
21799;DHT22;24973;47.178;15.316;2022-12-07T07:28:02;-0.40;99.90
21799;DHT22;24973;47.178;15.316;2022-12-07T07:30:51;-0.40;99.90
21799;DHT22;24973;47.178;15.316;2022-12-07T07:33:41;-0.30;99.90
21799;DHT22;24973;47.178;15.316;2022-12-07T07:36:30;0.00;99.90
21799;DHT22;24973;47.178;15.316;2022-12-07T07:39:19;0.70;99.90
21799;DHT22;24973;47.178;15.316;2022-12-07T07:42:07;-0.40;99.90
21799;DHT22;24973;47.178;15.316;2022-12-07T07:44:56;-0.40;99.90
21799;DHT22;24973;47.178;15.316;2022-12-07T07:47:45;0.20;99.90
21799;DHT22;24973;47.178;15.316;2022-12-07T07:50:35;1.40;99.90
21799;DHT22;24973;47.178;15.316;2022-12-07T07:53:24;1.00;99.90
21799;DHT22;24973;47.178;15.316;2022-12-07T07:56:13;-0.20;99.90
21799;DHT22;24973;47.178;15.316;2022-12-07T07:59:02;-0.20;99.90
21799;DHT22;24973;47.178;15.316;2022-12-07T08:01:51;-0.10;99.90
21799;DHT22;24973;47.178;15.316;2022-12-07T08:04:39;-0.10;99.90
21799;DHT22;24973;47.178;15.316;2022-12-07T08:07:30;-0.10;99.90
21799;DHT22;24973;47.178;15.316;2022-12-07T08:10:19;0.50;99.90
21799;DHT22;24973;47.178;15.316;2022-12-07T08:13:07;-0.20;99.90
21799;DHT22;24973;47.178;15.316;2022-12-07T08:16:03;0.60;99.90
21799;DHT22;24973;47.178;15.316;2022-12-07T08:18:53;-0.30;99.90
21799;DHT22;24973;47.178;15.316;2022-12-07T08:21:41;0.60;99.90
21799;DHT22;24973;47.178;15.316;2022-12-07T08:24:33;-0.20;99.90
21799;DHT22;24973;47.178;15.316;2022-12-07T08:27:21;0.90;99.90
21799;DHT22;24973;47.178;15.316;2022-12-07T08:30:14;-0.20;99.90
21799;DHT22;24973;47.178;15.316;2022-12-07T08:33:02;-0.20;99.90
21799;DHT22;24973;47.178;15.316;2022-12-07T08:35:51;-0.20;99.90
21799;DHT22;24973;47.178;15.316;2022-12-07T08:38:41;-0.20;99.90
21799;DHT22;24973;47.178;15.316;2022-12-07T08:41:39;-0.20;99.90
21799;DHT22;24973;47.178;15.316;2022-12-07T08:44:27;-0.20;99.90
21799;DHT22;24973;47.178;15.316;2022-12-07T08:47:16;0.60;99.90
21799;DHT22;24973;47.178;15.316;2022-12-07T08:50:07;0.00;99.90
21799;DHT22;24973;47.178;15.316;2022-12-07T08:52:59;0.10;99.90
21799;DHT22;24973;47.178;15.316;2022-12-07T08:55:48;0.10;99.90
21799;DHT22;24973;47.178;15.316;2022-12-07T08:58:39;0.90;99.90
21799;DHT22;24973;47.178;15.316;2022-12-07T09:01:28;1.10;99.90
21799;DHT22;24973;47.178;15.316;2022-12-07T09:04:17;1.00;99.90
21799;DHT22;24973;47.178;15.316;2022-12-07T09:07:07;0.80;99.90
21799;DHT22;24973;47.178;15.316;2022-12-07T09:09:56;1.10;99.90
21799;DHT22;24973;47.178;15.316;2022-12-07T09:12:45;0.80;99.90
21799;DHT22;24973;47.178;15.316;2022-12-07T09:15:35;0.30;99.90
21799;DHT22;24973;47.178;15.316;2022-12-07T09:18:23;0.30;99.90
21799;DHT22;24973;47.178;15.316;2022-12-07T09:21:12;2.50;99.90
21799;DHT22;24973;47.178;15.316;2022-12-07T09:24:01;0.90;99.90
21799;DHT22;24973;47.178;15.316;2022-12-07T09:26:50;0.90;99.90
21799;DHT22;24973;47.178;15.316;2022-12-07T09:29:38;1.20;99.90
21799;DHT22;24973;47.178;15.316;2022-12-07T09:32:28;0.80;99.90
21799;DHT22;24973;47.178;15.316;2022-12-07T09:35:17;1.10;99.90
21799;DHT22;24973;47.178;15.316;2022-12-07T09:38:06;2.10;99.90
21799;DHT22;24973;47.178;15.316;2022-12-07T09:40:55;1.50;99.90
21799;DHT22;24973;47.178;15.316;2022-12-07T09:43:48;0.80;99.90
21799;DHT22;24973;47.178;15.316;2022-12-07T09:46:41;0.90;99.90
21799;DHT22;24973;47.178;15.316;2022-12-07T09:49:33;0.90;99.90
21799;DHT22;24973;47.178;15.316;2022-12-07T09:52:26;0.80;99.90
21799;DHT22;24973;47.178;15.316;2022-12-07T09:55:23;1.00;99.90
21799;DHT22;24973;47.178;15.316;2022-12-07T09:58:19;1.00;99.90
21799;DHT22;24973;47.178;15.316;2022-12-07T10:01:12;1.50;99.90
21799;DHT22;24973;47.178;15.316;2022-12-07T10:04:09;1.00;99.90
21799;DHT22;24973;47.178;15.316;2022-12-07T10:07:01;1.00;99.90
21799;DHT22;24973;47.178;15.316;2022-12-07T10:09:50;1.20;99.90
21799;DHT22;24973;47.178;15.316;2022-12-07T10:12:53;1.20;99.90
21799;DHT22;24973;47.178;15.316;2022-12-07T10:15:50;1.40;99.90
21799;DHT22;24973;47.178;15.316;2022-12-07T10:18:41;1.60;99.90
21799;DHT22;24973;47.178;15.316;2022-12-07T10:21:31;2.20;99.90
21799;DHT22;24973;47.178;15.316;2022-12-07T10:24:22;2.40;99.90
21799;DHT22;24973;47.178;15.316;2022-12-07T10:27:21;2.60;99.90
21799;DHT22;24973;47.178;15.316;2022-12-07T10:30:14;2.60;99.90
21799;DHT22;24973;47.178;15.316;2022-12-07T10:33:31;2.60;99.90
21799;DHT22;24973;47.178;15.316;2022-12-07T10:36:25;2.40;99.90
21799;DHT22;24973;47.178;15.316;2022-12-07T10:39:16;2.50;99.90
21799;DHT22;24973;47.178;15.316;2022-12-07T10:42:16;3.00;99.90
21799;DHT22;24973;47.178;15.316;2022-12-07T10:45:12;3.90;99.90
21799;DHT22;24973;47.178;15.316;2022-12-07T10:48:07;5.10;99.90
21799;DHT22;24973;47.178;15.316;2022-12-07T10:51:04;6.20;99.90
21799;DHT22;24973;47.178;15.316;2022-12-07T10:54:04;7.10;99.90
21799;DHT22;24973;47.178;15.316;2022-12-07T10:57:10;7.70;99.90
21799;DHT22;24973;47.178;15.316;2022-12-07T11:00:13;8.10;99.90
21799;DHT22;24973;47.178;15.316;2022-12-07T11:03:30;8.70;99.90
21799;DHT22;24973;47.178;15.316;2022-12-07T11:06:41;8.80;99.90
21799;DHT22;24973;47.178;15.316;2022-12-07T11:09:46;8.80;99.90
21799;DHT22;24973;47.178;15.316;2022-12-07T11:13:20;8.60;99.90
21799;DHT22;24973;47.178;15.316;2022-12-07T11:16:21;8.20;99.90
21799;DHT22;24973;47.178;15.316;2022-12-07T11:19:29;8.30;99.90
21799;DHT22;24973;47.178;15.316;2022-12-07T11:22:29;8.60;99.90
21799;DHT22;24973;47.178;15.316;2022-12-07T11:25:30;8.20;99.90
21799;DHT22;24973;47.178;15.316;2022-12-07T11:28:40;8.10;99.90
21799;DHT22;24973;47.178;15.316;2022-12-07T11:31:50;8.10;99.90
21799;DHT22;24973;47.178;15.316;2022-12-07T11:34:55;8.20;99.90
21799;DHT22;24973;47.178;15.316;2022-12-07T11:37:56;8.80;99.90
21799;DHT22;24973;47.178;15.316;2022-12-07T11:40:48;9.80;99.90
21799;DHT22;24973;47.178;15.316;2022-12-07T11:43:46;10.80;99.90
21799;DHT22;24973;47.178;15.316;2022-12-07T11:46:47;11.50;99.90
21799;DHT22;24973;47.178;15.316;2022-12-07T11:49:43;11.90;99.90
21799;DHT22;24973;47.178;15.316;2022-12-07T11:52:38;12.50;99.90
21799;DHT22;24973;47.178;15.316;2022-12-07T11:55:42;13.10;99.90
21799;DHT22;24973;47.178;15.316;2022-12-07T11:58:47;13.50;99.90
21799;DHT22;24973;47.178;15.316;2022-12-07T12:01:47;13.80;99.90
21799;DHT22;24973;47.178;15.316;2022-12-07T12:04:49;13.80;99.90
21799;DHT22;24973;47.178;15.316;2022-12-07T12:07:41;14.00;99.40
21799;DHT22;24973;47.178;15.316;2022-12-07T12:10:56;13.80;99.50
21799;DHT22;24973;47.178;15.316;2022-12-07T12:14:08;13.60;99.60
21799;DHT22;24973;47.178;15.316;2022-12-07T12:17:44;13.80;99.40
21799;DHT22;24973;47.178;15.316;2022-12-07T12:20:43;13.90;94.80
21799;DHT22;24973;47.178;15.316;2022-12-07T12:23:39;13.60;96.50
21799;DHT22;24973;47.178;15.316;2022-12-07T12:26:31;13.70;96.70
21799;DHT22;24973;47.178;15.316;2022-12-07T12:29:27;14.00;96.90
21799;DHT22;24973;47.178;15.316;2022-12-07T12:32:21;14.40;96.40
21799;DHT22;24973;47.178;15.316;2022-12-07T12:35:28;14.70;94.80
21799;DHT22;24973;47.178;15.316;2022-12-07T12:38:30;14.70;94.60
21799;DHT22;24973;47.178;15.316;2022-12-07T12:41:51;14.50;93.00
21799;DHT22;24973;47.178;15.316;2022-12-07T12:45:21;13.70;94.10
21799;DHT22;24973;47.178;15.316;2022-12-07T12:48:27;13.40;95.40
21799;DHT22;24973;47.178;15.316;2022-12-07T12:51:36;13.60;96.20
21799;DHT22;24973;47.178;15.316;2022-12-07T12:54:26;14.20;95.00
21799;DHT22;24973;47.178;15.316;2022-12-07T12:57:22;14.60;93.90
21799;DHT22;24973;47.178;15.316;2022-12-07T13:00:19;15.00;91.30
21799;DHT22;24973;47.178;15.316;2022-12-07T13:03:27;15.40;92.10
21799;DHT22;24973;47.178;15.316;2022-12-07T13:06:30;16.10;91.90
21799;DHT22;24973;47.178;15.316;2022-12-07T13:09:24;16.70;91.20
21799;DHT22;24973;47.178;15.316;2022-12-07T13:12:16;17.50;90.10
21799;DHT22;24973;47.178;15.316;2022-12-07T13:21:42;18.70;80.70
21799;DHT22;24973;47.178;15.316;2022-12-07T13:24:32;19.00;78.80
21799;DHT22;24973;47.178;15.316;2022-12-07T13:27:21;19.30;75.80
21799;DHT22;24973;47.178;15.316;2022-12-07T13:30:16;19.10;74.70
21799;DHT22;24973;47.178;15.316;2022-12-07T13:33:09;19.20;73.70
21799;DHT22;24973;47.178;15.316;2022-12-07T13:35:58;19.20;73.10
21799;DHT22;24973;47.178;15.316;2022-12-07T13:38:53;19.20;72.00
21799;DHT22;24973;47.178;15.316;2022-12-07T13:41:44;18.90;71.90
21799;DHT22;24973;47.178;15.316;2022-12-07T13:44:34;18.80;72.80
21799;DHT22;24973;47.178;15.316;2022-12-07T13:47:33;18.70;72.30
21799;DHT22;24973;47.178;15.316;2022-12-07T13:50:28;18.50;72.00
21799;DHT22;24973;47.178;15.316;2022-12-07T13:53:18;18.20;72.40
21799;DHT22;24973;47.178;15.316;2022-12-07T13:56:13;17.80;73.30
21799;DHT22;24973;47.178;15.316;2022-12-07T13:59:07;17.60;72.20
21799;DHT22;24973;47.178;15.316;2022-12-07T14:02:01;17.00;72.50
21799;DHT22;24973;47.178;15.316;2022-12-07T14:04:50;15.70;73.90
21799;DHT22;24973;47.178;15.316;2022-12-07T14:07:54;14.50;77.10
21799;DHT22;24973;47.178;15.316;2022-12-07T14:10:55;13.30;78.70
21799;DHT22;24973;47.178;15.316;2022-12-07T14:13:51;12.20;83.10
21799;DHT22;24973;47.178;15.316;2022-12-07T14:16:56;11.30;86.80
21799;DHT22;24973;47.178;15.316;2022-12-07T14:19:50;10.50;89.80
21799;DHT22;24973;47.178;15.316;2022-12-07T14:22:42;10.00;91.10
21799;DHT22;24973;47.178;15.316;2022-12-07T14:25:33;9.40;92.40
21799;DHT22;24973;47.178;15.316;2022-12-07T14:28:25;8.70;94.80
21799;DHT22;24973;47.178;15.316;2022-12-07T14:31:16;8.10;97.50
21799;DHT22;24973;47.178;15.316;2022-12-07T14:34:12;7.60;98.90
21799;DHT22;24973;47.178;15.316;2022-12-07T14:37:01;7.30;99.90
21799;DHT22;24973;47.178;15.316;2022-12-07T14:39:50;7.20;99.90
21799;DHT22;24973;47.178;15.316;2022-12-07T14:42:40;7.00;99.90
21799;DHT22;24973;47.178;15.316;2022-12-07T14:45:30;6.80;99.90
21799;DHT22;24973;47.178;15.316;2022-12-07T14:48:19;6.60;99.90
21799;DHT22;24973;47.178;15.316;2022-12-07T14:51:28;6.50;99.90
21799;DHT22;24973;47.178;15.316;2022-12-07T14:54:36;6.40;99.90
21799;DHT22;24973;47.178;15.316;2022-12-07T14:57:25;6.30;99.90
21799;DHT22;24973;47.178;15.316;2022-12-07T15:00:17;6.20;99.90
21799;DHT22;24973;47.178;15.316;2022-12-07T15:03:07;6.10;99.90
21799;DHT22;24973;47.178;15.316;2022-12-07T15:05:55;5.90;99.90
21799;DHT22;24973;47.178;15.316;2022-12-07T15:08:44;5.90;99.90
21799;DHT22;24973;47.178;15.316;2022-12-07T15:11:33;5.80;99.90
21799;DHT22;24973;47.178;15.316;2022-12-07T15:14:25;5.70;99.90
21799;DHT22;24973;47.178;15.316;2022-12-07T15:17:15;5.50;99.90
21799;DHT22;24973;47.178;15.316;2022-12-07T15:20:14;5.30;99.90
21799;DHT22;24973;47.178;15.316;2022-12-07T15:23:04;5.00;99.90
21799;DHT22;24973;47.178;15.316;2022-12-07T15:25:53;4.90;99.90
21799;DHT22;24973;47.178;15.316;2022-12-07T15:28:42;4.80;99.90
21799;DHT22;24973;47.178;15.316;2022-12-07T15:31:31;4.80;99.90
21799;DHT22;24973;47.178;15.316;2022-12-07T15:34:41;4.70;99.90
21799;DHT22;24973;47.178;15.316;2022-12-07T15:37:29;4.60;99.90
21799;DHT22;24973;47.178;15.316;2022-12-07T15:40:18;4.60;99.90
21799;DHT22;24973;47.178;15.316;2022-12-07T15:43:09;4.60;99.90
21799;DHT22;24973;47.178;15.316;2022-12-07T15:46:18;4.60;99.90
21799;DHT22;24973;47.178;15.316;2022-12-07T15:49:10;4.50;99.90
21799;DHT22;24973;47.178;15.316;2022-12-07T15:52:01;4.50;99.90
21799;DHT22;24973;47.178;15.316;2022-12-07T15:54:50;4.40;99.90
21799;DHT22;24973;47.178;15.316;2022-12-07T15:57:39;4.30;99.90
21799;DHT22;24973;47.178;15.316;2022-12-07T16:00:28;4.30;99.90
21799;DHT22;24973;47.178;15.316;2022-12-07T16:03:16;4.20;99.90
21799;DHT22;24973;47.178;15.316;2022-12-07T16:06:06;4.20;99.90
21799;DHT22;24973;47.178;15.316;2022-12-07T16:08:56;4.10;99.90
21799;DHT22;24973;47.178;15.316;2022-12-07T16:11:45;4.20;99.90
21799;DHT22;24973;47.178;15.316;2022-12-07T16:14:34;4.20;99.90
21799;DHT22;24973;47.178;15.316;2022-12-07T16:17:23;4.20;99.90
21799;DHT22;24973;47.178;15.316;2022-12-07T16:20:12;4.20;99.90
21799;DHT22;24973;47.178;15.316;2022-12-07T16:23:00;4.20;99.90
21799;DHT22;24973;47.178;15.316;2022-12-07T16:25:51;4.10;99.90
21799;DHT22;24973;47.178;15.316;2022-12-07T16:28:40;4.20;99.90
21799;DHT22;24973;47.178;15.316;2022-12-07T16:31:29;4.10;99.90
21799;DHT22;24973;47.178;15.316;2022-12-07T16:34:18;4.10;99.90
21799;DHT22;24973;47.178;15.316;2022-12-07T16:37:07;4.10;99.90
21799;DHT22;24973;47.178;15.316;2022-12-07T16:39:55;4.10;99.90
21799;DHT22;24973;47.178;15.316;2022-12-07T16:42:46;4.00;99.90
21799;DHT22;24973;47.178;15.316;2022-12-07T16:45:36;4.00;99.90
21799;DHT22;24973;47.178;15.316;2022-12-07T16:48:25;3.90;99.90
21799;DHT22;24973;47.178;15.316;2022-12-07T16:51:14;3.90;99.90
21799;DHT22;24973;47.178;15.316;2022-12-07T16:54:03;3.80;99.90
21799;DHT22;24973;47.178;15.316;2022-12-07T16:56:53;3.80;99.90
21799;DHT22;24973;47.178;15.316;2022-12-07T16:59:44;3.80;99.90
21799;DHT22;24973;47.178;15.316;2022-12-07T17:02:33;3.80;99.90
21799;DHT22;24973;47.178;15.316;2022-12-07T17:05:22;3.80;99.90
21799;DHT22;24973;47.178;15.316;2022-12-07T17:08:12;3.80;99.90
21799;DHT22;24973;47.178;15.316;2022-12-07T17:11:09;3.80;99.90
21799;DHT22;24973;47.178;15.316;2022-12-07T17:13:59;3.80;99.90
21799;DHT22;24973;47.178;15.316;2022-12-07T17:17:07;3.80;99.90
21799;DHT22;24973;47.178;15.316;2022-12-07T17:19:56;3.80;99.90
21799;DHT22;24973;47.178;15.316;2022-12-07T17:22:45;3.80;99.90
21799;DHT22;24973;47.178;15.316;2022-12-07T17:25:34;3.70;99.90
21799;DHT22;24973;47.178;15.316;2022-12-07T17:28:23;3.80;99.90
21799;DHT22;24973;47.178;15.316;2022-12-07T17:31:13;3.80;99.90
21799;DHT22;24973;47.178;15.316;2022-12-07T17:34:10;3.80;99.90
21799;DHT22;24973;47.178;15.316;2022-12-07T17:36:59;3.70;99.90
21799;DHT22;24973;47.178;15.316;2022-12-07T17:39:47;3.70;99.90
21799;DHT22;24973;47.178;15.316;2022-12-07T17:42:36;3.60;99.90
21799;DHT22;24973;47.178;15.316;2022-12-07T17:45:26;3.60;99.90
21799;DHT22;24973;47.178;15.316;2022-12-07T17:48:15;3.50;99.90
21799;DHT22;24973;47.178;15.316;2022-12-07T17:51:05;3.30;99.90
21799;DHT22;24973;47.178;15.316;2022-12-07T17:54:12;3.20;99.90
21799;DHT22;24973;47.178;15.316;2022-12-07T17:57:00;3.00;99.90
21799;DHT22;24973;47.178;15.316;2022-12-07T17:59:49;2.90;99.90
21799;DHT22;24973;47.178;15.316;2022-12-07T18:02:38;3.00;99.90
21799;DHT22;24973;47.178;15.316;2022-12-07T18:05:27;3.00;99.90
21799;DHT22;24973;47.178;15.316;2022-12-07T18:08:17;3.00;99.90
21799;DHT22;24973;47.178;15.316;2022-12-07T18:11:06;3.10;99.90
21799;DHT22;24973;47.178;15.316;2022-12-07T18:13:55;3.00;99.90
21799;DHT22;24973;47.178;15.316;2022-12-07T18:16:43;3.00;99.90